sensor_id;sensor_type;location;lat;lon;timestamp;pressure;altitude;pressure_sealevel;temperature;humidity
47897;BME280;39629;51.400;5.494;2023-06-10T00:05:00;101214.78;;;21.42;83.14
47897;BME280;39629;51.400;5.494;2023-06-10T00:10:03;101215.28;;;21.30;84.54
47897;BME280;39629;51.400;5.494;2023-06-10T00:15:08;101215.06;;;21.12;86.11
47897;BME280;39629;51.400;5.494;2023-06-10T00:20:11;101213.59;;;21.05;88.92
47897;BME280;39629;51.400;5.494;2023-06-10T00:25:13;101224.84;;;20.91;88.94
47897;BME280;39629;51.400;5.494;2023-06-10T00:30:16;101218.69;;;20.89;89.26
47897;BME280;39629;51.400;5.494;2023-06-10T00:35:18;101219.28;;;20.73;90.33
47897;BME280;39629;51.400;5.494;2023-06-10T00:40:20;101219.59;;;20.66;91.06
47897;BME280;39629;51.400;5.494;2023-06-10T00:45:22;101222.81;;;20.52;92.93
47897;BME280;39629;51.400;5.494;2023-06-10T00:50:24;101224.91;;;20.43;95.40
47897;BME280;39629;51.400;5.494;2023-06-10T00:55:26;101219.78;;;20.37;97.10
47897;BME280;39629;51.400;5.494;2023-06-10T01:00:29;101221.84;;;20.29;98.44
47897;BME280;39629;51.400;5.494;2023-06-10T01:05:30;101221.31;;;20.19;99.82
47897;BME280;39629;51.400;5.494;2023-06-10T01:10:33;101214.31;;;20.15;98.75
47897;BME280;39629;51.400;5.494;2023-06-10T01:15:38;101214.69;;;20.06;98.01
47897;BME280;39629;51.400;5.494;2023-06-10T01:20:41;101218.53;;;19.97;99.42
47897;BME280;39629;51.400;5.494;2023-06-10T01:25:47;101218.28;;;19.80;98.72
47897;BME280;39629;51.400;5.494;2023-06-10T01:30:55;101215.09;;;19.68;100.00
47897;BME280;39629;51.400;5.494;2023-06-10T01:36:02;101216.63;;;19.50;100.00
47897;BME280;39629;51.400;5.494;2023-06-10T01:41:06;101227.41;;;19.47;100.00
47897;BME280;39629;51.400;5.494;2023-06-10T01:46:08;101225.56;;;19.21;100.00
47897;BME280;39629;51.400;5.494;2023-06-10T01:51:09;101224.25;;;19.07;100.00
47897;BME280;39629;51.400;5.494;2023-06-10T01:56:12;101228.22;;;18.94;100.00
47897;BME280;39629;51.400;5.494;2023-06-10T02:01:17;101224.03;;;18.85;100.00
47897;BME280;39629;51.400;5.494;2023-06-10T02:06:18;101230.44;;;18.80;100.00
47897;BME280;39629;51.400;5.494;2023-06-10T02:11:21;101238.78;;;18.69;100.00
47897;BME280;39629;51.400;5.494;2023-06-10T02:16:23;101239.94;;;18.59;100.00
47897;BME280;39629;51.400;5.494;2023-06-10T02:21:25;101236.56;;;18.53;100.00
47897;BME280;39629;51.400;5.494;2023-06-10T02:26:27;101235.50;;;18.28;100.00
47897;BME280;39629;51.400;5.494;2023-06-10T02:31:33;101237.28;;;18.27;100.00
47897;BME280;39629;51.400;5.494;2023-06-10T02:36:36;101244.63;;;18.19;100.00
47897;BME280;39629;51.400;5.494;2023-06-10T02:41:40;101245.72;;;18.12;100.00
47897;BME280;39629;51.400;5.494;2023-06-10T02:46:42;101248.63;;;18.02;100.00
47897;BME280;39629;51.400;5.494;2023-06-10T02:51:44;101243.44;;;17.98;100.00
47897;BME280;39629;51.400;5.494;2023-06-10T02:56:47;101245.53;;;17.85;100.00
47897;BME280;39629;51.400;5.494;2023-06-10T03:01:57;101238.72;;;17.75;100.00
47897;BME280;39629;51.400;5.494;2023-06-10T03:07:01;101242.19;;;17.77;100.00
47897;BME280;39629;51.400;5.494;2023-06-10T03:12:09;101243.41;;;17.65;100.00
47897;BME280;39629;51.400;5.494;2023-06-10T03:17:16;101256.13;;;17.53;100.00
47897;BME280;39629;51.400;5.494;2023-06-10T03:22:19;101249.03;;;17.52;100.00
47897;BME280;39629;51.400;5.494;2023-06-10T03:27:36;101252.69;;;17.48;100.00
47897;BME280;39629;51.400;5.494;2023-06-10T03:32:41;101257.22;;;17.45;100.00
47897;BME280;39629;51.400;5.494;2023-06-10T03:37:46;101253.91;;;17.33;100.00
47897;BME280;39629;51.400;5.494;2023-06-10T03:42:49;101266.59;;;17.22;100.00
47897;BME280;39629;51.400;5.494;2023-06-10T03:47:52;101274.38;;;17.31;100.00
47897;BME280;39629;51.400;5.494;2023-06-10T03:52:58;101268.06;;;17.35;100.00
47897;BME280;39629;51.400;5.494;2023-06-10T03:58:02;101278.25;;;17.16;100.00
47897;BME280;39629;51.400;5.494;2023-06-10T04:03:04;101275.56;;;17.18;100.00
47897;BME280;39629;51.400;5.494;2023-06-10T04:08:12;101276.63;;;17.11;100.00
47897;BME280;39629;51.400;5.494;2023-06-10T04:13:15;101268.34;;;17.23;100.00
47897;BME280;39629;51.400;5.494;2023-06-10T04:18:26;101279.00;;;17.23;100.00
47897;BME280;39629;51.400;5.494;2023-06-10T04:23:31;101276.81;;;17.41;100.00
47897;BME280;39629;51.400;5.494;2023-06-10T04:28:34;101292.09;;;17.68;100.00
47897;BME280;39629;51.400;5.494;2023-06-10T04:33:36;101287.56;;;18.07;100.00
47897;BME280;39629;51.400;5.494;2023-06-10T04:38:39;101290.22;;;18.41;100.00
47897;BME280;39629;51.400;5.494;2023-06-10T04:43:43;101290.06;;;18.77;100.00
47897;BME280;39629;51.400;5.494;2023-06-10T04:48:46;101291.84;;;19.06;100.00
47897;BME280;39629;51.400;5.494;2023-06-10T04:53:49;101294.97;;;19.49;100.00
47897;BME280;39629;51.400;5.494;2023-06-10T04:58:52;101286.09;;;20.01;100.00
47897;BME280;39629;51.400;5.494;2023-06-10T05:03:53;101293.19;;;20.27;100.00
47897;BME280;39629;51.400;5.494;2023-06-10T05:08:55;101295.22;;;20.69;100.00
47897;BME280;39629;51.400;5.494;2023-06-10T05:13:58;101293.34;;;21.19;100.00
47897;BME280;39629;51.400;5.494;2023-06-10T05:18:59;101295.91;;;21.22;100.00
47897;BME280;39629;51.400;5.494;2023-06-10T05:24:01;101296.13;;;21.16;100.00
47897;BME280;39629;51.400;5.494;2023-06-10T05:29:04;101289.84;;;21.61;100.00
47897;BME280;39629;51.400;5.494;2023-06-10T05:34:05;101288.09;;;21.60;100.00
47897;BME280;39629;51.400;5.494;2023-06-10T05:39:07;101285.69;;;22.57;96.16
47897;BME280;39629;51.400;5.494;2023-06-10T05:44:10;101296.72;;;22.09;98.40
47897;BME280;39629;51.400;5.494;2023-06-10T05:49:11;101292.56;;;22.62;93.98
47897;BME280;39629;51.400;5.494;2023-06-10T05:54:13;101296.91;;;22.86;89.26
47897;BME280;39629;51.400;5.494;2023-06-10T05:59:16;101300.78;;;23.36;84.54
47897;BME280;39629;51.400;5.494;2023-06-10T06:04:17;101305.81;;;23.05;85.89
47897;BME280;39629;51.400;5.494;2023-06-10T06:09:19;101294.03;;;23.27;80.35
47897;BME280;39629;51.400;5.494;2023-06-10T06:14:22;101297.25;;;23.53;76.13
47897;BME280;39629;51.400;5.494;2023-06-10T06:19:23;101306.88;;;23.39;79.91
47897;BME280;39629;51.400;5.494;2023-06-10T06:24:25;101291.97;;;24.39;71.96
47897;BME280;39629;51.400;5.494;2023-06-10T06:29:27;101309.41;;;23.60;72.07
47897;BME280;39629;51.400;5.494;2023-06-10T06:34:30;101301.47;;;24.28;67.92
47897;BME280;39629;51.400;5.494;2023-06-10T06:39:32;101301.00;;;24.03;68.79
47897;BME280;39629;51.400;5.494;2023-06-10T06:44:34;101308.34;;;24.52;68.83
47897;BME280;39629;51.400;5.494;2023-06-10T06:49:36;101308.97;;;24.22;67.77
47897;BME280;39629;51.400;5.494;2023-06-10T06:54:37;101313.72;;;25.33;64.26
47897;BME280;39629;51.400;5.494;2023-06-10T06:59:40;101314.81;;;25.61;60.99
47897;BME280;39629;51.400;5.494;2023-06-10T07:04:42;101314.31;;;26.00;59.11
47897;BME280;39629;51.400;5.494;2023-06-10T07:09:44;101314.50;;;26.12;56.04
47897;BME280;39629;51.400;5.494;2023-06-10T07:14:47;101322.47;;;25.52;56.96
47897;BME280;39629;51.400;5.494;2023-06-10T07:19:49;101324.78;;;25.91;53.68
47897;BME280;39629;51.400;5.494;2023-06-10T07:24:51;101329.78;;;25.50;54.49
47897;BME280;39629;51.400;5.494;2023-06-10T07:29:56;101316.78;;;26.77;52.48
47897;BME280;39629;51.400;5.494;2023-06-10T07:34:57;101330.25;;;25.89;53.34
47897;BME280;39629;51.400;5.494;2023-06-10T07:39:59;101327.91;;;25.83;53.36
47897;BME280;39629;51.400;5.494;2023-06-10T07:45:02;101331.44;;;25.99;52.82
47897;BME280;39629;51.400;5.494;2023-06-10T07:50:04;101334.31;;;26.56;50.26
47897;BME280;39629;51.400;5.494;2023-06-10T07:55:07;101328.38;;;27.35;50.52
47897;BME280;39629;51.400;5.494;2023-06-10T08:00:10;101331.47;;;27.15;50.79
47897;BME280;39629;51.400;5.494;2023-06-10T08:05:15;101324.91;;;26.63;45.04
47897;BME280;39629;51.400;5.494;2023-06-10T08:10:16;101325.81;;;27.05;45.35
47897;BME280;39629;51.400;5.494;2023-06-10T08:15:19;101330.84;;;27.11;46.32
47897;BME280;39629;51.400;5.494;2023-06-10T08:20:21;101329.00;;;27.12;45.61
47897;BME280;39629;51.400;5.494;2023-06-10T08:25:22;101327.44;;;27.22;41.18
47897;BME280;39629;51.400;5.494;2023-06-10T08:30:25;101326.19;;;28.61;41.33
47897;BME280;39629;51.400;5.494;2023-06-10T08:35:27;101324.22;;;27.84;43.46
47897;BME280;39629;51.400;5.494;2023-06-10T08:40:28;101323.28;;;27.85;41.21
47897;BME280;39629;51.400;5.494;2023-06-10T08:45:35;101321.41;;;28.65;41.65
47897;BME280;39629;51.400;5.494;2023-06-10T08:50:37;101327.06;;;27.96;41.73
47897;BME280;39629;51.400;5.494;2023-06-10T08:55:42;101326.63;;;29.05;39.34
47897;BME280;39629;51.400;5.494;2023-06-10T09:00:47;101329.63;;;29.26;39.34
47897;BME280;39629;51.400;5.494;2023-06-10T09:05:49;101317.97;;;29.13;39.34
47897;BME280;39629;51.400;5.494;2023-06-10T09:10:51;101317.56;;;29.30;39.83
47897;BME280;39629;51.400;5.494;2023-06-10T09:15:54;101321.44;;;29.63;37.54
47897;BME280;39629;51.400;5.494;2023-06-10T09:20:56;101318.59;;;30.36;36.89
47897;BME280;39629;51.400;5.494;2023-06-10T09:25:58;101316.13;;;30.55;35.14
47897;BME280;39629;51.400;5.494;2023-06-10T09:31:05;101308.66;;;30.23;33.92
47897;BME280;39629;51.400;5.494;2023-06-10T09:36:07;101314.25;;;31.24;36.28
47897;BME280;39629;51.400;5.494;2023-06-10T09:41:09;101318.81;;;30.33;35.64
47897;BME280;39629;51.400;5.494;2023-06-10T09:46:16;101321.16;;;29.79;36.46
47897;BME280;39629;51.400;5.494;2023-06-10T09:51:18;101301.00;;;31.31;34.79
47897;BME280;39629;51.400;5.494;2023-06-10T09:56:19;101307.28;;;31.75;33.20
47897;BME280;39629;51.400;5.494;2023-06-10T10:01:22;101304.75;;;31.18;33.21
47897;BME280;39629;51.400;5.494;2023-06-10T10:06:25;101304.63;;;31.20;33.66
47897;BME280;39629;51.400;5.494;2023-06-10T10:11:27;101297.06;;;31.88;31.70
47897;BME280;39629;51.400;5.494;2023-06-10T10:16:33;101291.31;;;30.83;32.86
47897;BME280;39629;51.400;5.494;2023-06-10T10:21:43;101299.56;;;31.80;31.60
47897;BME280;39629;51.400;5.494;2023-06-10T10:26:47;101302.34;;;31.36;31.88
47897;BME280;39629;51.400;5.494;2023-06-10T10:31:51;101297.97;;;31.45;33.63
47897;BME280;39629;51.400;5.494;2023-06-10T10:36:54;101292.88;;;31.84;31.25
47897;BME280;39629;51.400;5.494;2023-06-10T10:41:56;101294.59;;;31.20;34.13
47897;BME280;39629;51.400;5.494;2023-06-10T10:47:02;101284.63;;;31.95;31.51
47897;BME280;39629;51.400;5.494;2023-06-10T10:52:04;101285.59;;;31.20;33.59
47897;BME280;39629;51.400;5.494;2023-06-10T10:57:13;101279.38;;;31.29;32.58
47897;BME280;39629;51.400;5.494;2023-06-10T11:02:17;101267.50;;;32.26;32.14
47897;BME280;39629;51.400;5.494;2023-06-10T11:07:20;101282.09;;;32.15;32.63
47897;BME280;39629;51.400;5.494;2023-06-10T11:12:22;101270.66;;;31.79;32.14
47897;BME280;39629;51.400;5.494;2023-06-10T11:17:25;101263.66;;;30.89;31.40
47897;BME280;39629;51.400;5.494;2023-06-10T11:22:27;101266.38;;;32.07;32.83
47897;BME280;39629;51.400;5.494;2023-06-10T11:27:28;101268.94;;;31.78;28.52
47897;BME280;39629;51.400;5.494;2023-06-10T11:32:41;101268.16;;;31.55;28.58
47897;BME280;39629;51.400;5.494;2023-06-10T11:37:44;101255.56;;;31.54;28.93
47897;BME280;39629;51.400;5.494;2023-06-10T11:42:46;101246.16;;;32.00;28.49
47897;BME280;39629;51.400;5.494;2023-06-10T11:47:58;101252.13;;;31.73;30.06
47897;BME280;39629;51.400;5.494;2023-06-10T11:53:00;101249.53;;;31.92;31.12
47897;BME280;39629;51.400;5.494;2023-06-10T11:58:02;101243.56;;;31.99;28.83
47897;BME280;39629;51.400;5.494;2023-06-10T12:03:05;101239.66;;;31.38;30.62
47897;BME280;39629;51.400;5.494;2023-06-10T12:08:10;101239.88;;;32.31;27.91
47897;BME280;39629;51.400;5.494;2023-06-10T12:13:11;101231.84;;;32.08;28.02
47897;BME280;39629;51.400;5.494;2023-06-10T12:18:17;101238.84;;;31.80;28.05
47897;BME280;39629;51.400;5.494;2023-06-10T12:23:19;101228.22;;;31.98;29.47
47897;BME280;39629;51.400;5.494;2023-06-10T12:28:24;101230.78;;;32.20;27.33
47897;BME280;39629;51.400;5.494;2023-06-10T12:33:27;101223.44;;;32.42;28.53
47897;BME280;39629;51.400;5.494;2023-06-10T12:38:28;101216.19;;;32.21;27.54
47897;BME280;39629;51.400;5.494;2023-06-10T12:43:31;101231.16;;;32.37;26.99
47897;BME280;39629;51.400;5.494;2023-06-10T12:48:34;101222.22;;;32.25;26.74
47897;BME280;39629;51.400;5.494;2023-06-10T12:53:36;101229.75;;;31.69;27.51
47897;BME280;39629;51.400;5.494;2023-06-10T12:58:37;101225.03;;;32.44;28.08
47897;BME280;39629;51.400;5.494;2023-06-10T13:03:40;101221.31;;;32.55;28.35
47897;BME280;39629;51.400;5.494;2023-06-10T13:08:41;101215.72;;;32.47;28.13
47897;BME280;39629;51.400;5.494;2023-06-10T13:13:43;101214.06;;;32.25;25.46
47897;BME280;39629;51.400;5.494;2023-06-10T13:18:46;101206.88;;;31.93;26.79
47897;BME280;39629;51.400;5.494;2023-06-10T13:23:47;101211.03;;;32.18;26.21
47897;BME280;39629;51.400;5.494;2023-06-10T13:28:49;101200.41;;;32.15;26.04
47897;BME280;39629;51.400;5.494;2023-06-10T13:33:52;101199.34;;;32.78;25.80
47897;BME280;39629;51.400;5.494;2023-06-10T13:38:53;101187.75;;;32.45;25.79
47897;BME280;39629;51.400;5.494;2023-06-10T13:43:56;101187.47;;;32.48;26.64
47897;BME280;39629;51.400;5.494;2023-06-10T13:48:58;101180.97;;;32.90;27.06
47897;BME280;39629;51.400;5.494;2023-06-10T13:54:00;101173.28;;;32.44;27.25
47897;BME280;39629;51.400;5.494;2023-06-10T13:59:02;101167.41;;;32.49;25.27
47897;BME280;39629;51.400;5.494;2023-06-10T14:04:04;101169.88;;;31.90;24.90
47897;BME280;39629;51.400;5.494;2023-06-10T14:09:06;101161.53;;;31.82;26.51
47897;BME280;39629;51.400;5.494;2023-06-10T14:14:08;101164.59;;;31.68;27.93
47897;BME280;39629;51.400;5.494;2023-06-10T14:19:11;101169.31;;;31.12;28.55
47897;BME280;39629;51.400;5.494;2023-06-10T14:24:13;101173.06;;;31.11;28.57
47897;BME280;39629;51.400;5.494;2023-06-10T14:29:14;101174.94;;;30.99;28.43
47897;BME280;39629;51.400;5.494;2023-06-10T14:34:18;101163.41;;;31.60;28.75
47897;BME280;39629;51.400;5.494;2023-06-10T14:39:20;101165.97;;;31.41;28.51
47897;BME280;39629;51.400;5.494;2023-06-10T14:44:21;101166.44;;;30.49;29.14
47897;BME280;39629;51.400;5.494;2023-06-10T14:49:24;101163.44;;;31.07;29.33
47897;BME280;39629;51.400;5.494;2023-06-10T14:54:26;101158.09;;;31.17;28.07
47897;BME280;39629;51.400;5.494;2023-06-10T14:59:27;101151.69;;;31.60;29.33
47897;BME280;39629;51.400;5.494;2023-06-10T15:04:30;101155.38;;;31.17;29.24
47897;BME280;39629;51.400;5.494;2023-06-10T15:09:32;101159.25;;;31.03;29.50
47897;BME280;39629;51.400;5.494;2023-06-10T15:14:33;101150.09;;;31.04;30.41
47897;BME280;39629;51.400;5.494;2023-06-10T15:19:36;101148.78;;;31.19;29.52
47897;BME280;39629;51.400;5.494;2023-06-10T15:24:38;101153.34;;;31.40;28.86
47897;BME280;39629;51.400;5.494;2023-06-10T15:29:39;101135.34;;;31.39;29.55
47897;BME280;39629;51.400;5.494;2023-06-10T15:34:42;101144.41;;;31.28;28.50
47897;BME280;39629;51.400;5.494;2023-06-10T15:39:47;101157.88;;;31.30;29.31
47897;BME280;39629;51.400;5.494;2023-06-10T15:44:49;101153.16;;;31.32;30.02
47897;BME280;39629;51.400;5.494;2023-06-10T15:49:54;101140.34;;;30.90;29.60
47897;BME280;39629;51.400;5.494;2023-06-10T15:54:55;101144.44;;;30.52;30.98
47897;BME280;39629;51.400;5.494;2023-06-10T15:59:56;101137.56;;;30.25;30.15
47897;BME280;39629;51.400;5.494;2023-06-10T16:04:59;101134.22;;;29.87;31.23
47897;BME280;39629;51.400;5.494;2023-06-10T16:10:01;101129.03;;;29.84;31.81
47897;BME280;39629;51.400;5.494;2023-06-10T16:15:03;101134.97;;;29.78;31.72
47897;BME280;39629;51.400;5.494;2023-06-10T16:20:07;101127.25;;;29.49;31.08
47897;BME280;39629;51.400;5.494;2023-06-10T16:25:09;101120.47;;;29.44;32.50
47897;BME280;39629;51.400;5.494;2023-06-10T16:30:11;101115.50;;;29.37;34.06
47897;BME280;39629;51.400;5.494;2023-06-10T16:35:14;101117.34;;;29.26;33.46
47897;BME280;39629;51.400;5.494;2023-06-10T16:40:16;101107.63;;;29.46;34.34
47897;BME280;39629;51.400;5.494;2023-06-10T16:45:17;101104.34;;;29.65;35.50
47897;BME280;39629;51.400;5.494;2023-06-10T16:50:20;101111.47;;;29.43;31.92
47897;BME280;39629;51.400;5.494;2023-06-10T16:55:22;101107.53;;;29.47;31.44
47897;BME280;39629;51.400;5.494;2023-06-10T17:00:23;101110.03;;;29.62;30.53
47897;BME280;39629;51.400;5.494;2023-06-10T17:05:26;101116.47;;;29.95;32.56
47897;BME280;39629;51.400;5.494;2023-06-10T17:10:28;101109.78;;;29.87;33.67
47897;BME280;39629;51.400;5.494;2023-06-10T17:15:30;101115.06;;;29.66;32.57
47897;BME280;39629;51.400;5.494;2023-06-10T17:20:33;101126.34;;;29.37;32.65
47897;BME280;39629;51.400;5.494;2023-06-10T17:25:34;101127.84;;;29.06;33.13
47897;BME280;39629;51.400;5.494;2023-06-10T17:30:37;101135.81;;;28.72;34.08
47897;BME280;39629;51.400;5.494;2023-06-10T17:35:39;101129.59;;;28.46;34.32
47897;BME280;39629;51.400;5.494;2023-06-10T17:40:41;101135.38;;;28.41;36.02
47897;BME280;39629;51.400;5.494;2023-06-10T17:45:43;101141.06;;;28.12;37.02
47897;BME280;39629;51.400;5.494;2023-06-10T17:50:46;101144.44;;;28.03;37.59
47897;BME280;39629;51.400;5.494;2023-06-10T17:55:47;101148.97;;;28.02;37.40
47897;BME280;39629;51.400;5.494;2023-06-10T18:00:49;101147.03;;;28.04;36.19
47897;BME280;39629;51.400;5.494;2023-06-10T18:05:52;101147.88;;;28.05;37.60
47897;BME280;39629;51.400;5.494;2023-06-10T18:10:53;101146.03;;;28.18;37.89
47897;BME280;39629;51.400;5.494;2023-06-10T18:15:55;101142.63;;;28.28;37.01
47897;BME280;39629;51.400;5.494;2023-06-10T18:20:58;101153.16;;;28.32;35.28
47897;BME280;39629;51.400;5.494;2023-06-10T18:25:59;101152.72;;;28.26;36.20
47897;BME280;39629;51.400;5.494;2023-06-10T18:31:01;101166.50;;;28.22;35.86
47897;BME280;39629;51.400;5.494;2023-06-10T18:36:05;101157.84;;;28.04;37.65
47897;BME280;39629;51.400;5.494;2023-06-10T18:41:06;101164.78;;;27.96;36.46
47897;BME280;39629;51.400;5.494;2023-06-10T18:46:08;101169.78;;;27.89;37.76
47897;BME280;39629;51.400;5.494;2023-06-10T18:51:10;101169.84;;;27.87;37.18
47897;BME280;39629;51.400;5.494;2023-06-10T18:56:12;101176.88;;;27.51;38.38
47897;BME280;39629;51.400;5.494;2023-06-10T19:01:14;101192.59;;;27.32;38.78
47897;BME280;39629;51.400;5.494;2023-06-10T19:06:17;101201.59;;;27.18;39.59
47897;BME280;39629;51.400;5.494;2023-06-10T19:11:19;101205.06;;;26.93;40.79
47897;BME280;39629;51.400;5.494;2023-06-10T19:16:21;101198.19;;;26.74;41.76
47897;BME280;39629;51.400;5.494;2023-06-10T19:21:24;101206.81;;;26.52;43.65
47897;BME280;39629;51.400;5.494;2023-06-10T19:26:27;101210.75;;;26.32;44.25
47897;BME280;39629;51.400;5.494;2023-06-10T19:31:29;101221.56;;;26.03;45.11
47897;BME280;39629;51.400;5.494;2023-06-10T19:36:31;101225.38;;;25.84;46.07
47897;BME280;39629;51.400;5.494;2023-06-10T19:41:33;101225.69;;;25.64;46.33
47897;BME280;39629;51.400;5.494;2023-06-10T19:46:34;101232.19;;;25.45;47.47
47897;BME280;39629;51.400;5.494;2023-06-10T19:51:37;101230.59;;;25.27;48.14
47897;BME280;39629;51.400;5.494;2023-06-10T19:56:39;101235.97;;;25.11;48.15
47897;BME280;39629;51.400;5.494;2023-06-10T20:01:41;101245.53;;;25.00;49.14
47897;BME280;39629;51.400;5.494;2023-06-10T20:06:44;101237.53;;;24.83;49.39
47897;BME280;39629;51.400;5.494;2023-06-10T20:11:45;101246.56;;;24.66;50.41
47897;BME280;39629;51.400;5.494;2023-06-10T20:16:47;101240.47;;;24.29;53.71
47897;BME280;39629;51.400;5.494;2023-06-10T20:21:50;101247.47;;;24.15;53.72
47897;BME280;39629;51.400;5.494;2023-06-10T20:26:51;101254.19;;;24.07;53.84
47897;BME280;39629;51.400;5.494;2023-06-10T20:31:53;101261.41;;;23.89;54.54
47897;BME280;39629;51.400;5.494;2023-06-10T20:36:56;101267.88;;;23.85;55.27
47897;BME280;39629;51.400;5.494;2023-06-10T20:41:58;101270.16;;;23.57;57.74
47897;BME280;39629;51.400;5.494;2023-06-10T20:46:59;101274.16;;;23.48;57.61
47897;BME280;39629;51.400;5.494;2023-06-10T20:52:03;101288.28;;;23.35;59.90
47897;BME280;39629;51.400;5.494;2023-06-10T20:57:04;101286.00;;;23.44;59.24
47897;BME280;39629;51.400;5.494;2023-06-10T21:02:07;101290.06;;;23.17;61.49
47897;BME280;39629;51.400;5.494;2023-06-10T21:07:09;101281.66;;;23.05;61.92
47897;BME280;39629;51.400;5.494;2023-06-10T21:12:11;101284.50;;;23.02;62.42
47897;BME280;39629;51.400;5.494;2023-06-10T21:17:13;101289.50;;;22.91;63.09
47897;BME280;39629;51.400;5.494;2023-06-10T21:22:16;101290.31;;;22.72;65.47
47897;BME280;39629;51.400;5.494;2023-06-10T21:27:18;101292.56;;;22.62;66.64
47897;BME280;39629;51.400;5.494;2023-06-10T21:32:20;101294.38;;;22.62;66.93
47897;BME280;39629;51.400;5.494;2023-06-10T21:37:23;101292.63;;;22.42;66.28
47897;BME280;39629;51.400;5.494;2023-06-10T21:42:24;101291.03;;;22.38;68.03
47897;BME280;39629;51.400;5.494;2023-06-10T21:47:26;101289.63;;;22.29;68.68
47897;BME280;39629;51.400;5.494;2023-06-10T21:52:29;101292.84;;;22.17;70.72
47897;BME280;39629;51.400;5.494;2023-06-10T21:57:30;101301.72;;;21.96;70.65
47897;BME280;39629;51.400;5.494;2023-06-10T22:02:32;101297.09;;;21.79;72.84
47897;BME280;39629;51.400;5.494;2023-06-10T22:07:35;101299.50;;;21.86;74.57
47897;BME280;39629;51.400;5.494;2023-06-10T22:12:37;101295.56;;;21.74;76.37
47897;BME280;39629;51.400;5.494;2023-06-10T22:17:38;101292.13;;;21.70;77.33
47897;BME280;39629;51.400;5.494;2023-06-10T22:22:41;101300.31;;;21.67;78.74
47897;BME280;39629;51.400;5.494;2023-06-10T22:27:43;101291.22;;;21.49;80.84
47897;BME280;39629;51.400;5.494;2023-06-10T22:32:44;101301.38;;;21.41;79.14
47897;BME280;39629;51.400;5.494;2023-06-10T22:37:47;101297.81;;;21.40;79.23
47897;BME280;39629;51.400;5.494;2023-06-10T22:42:49;101292.50;;;21.17;83.03
47897;BME280;39629;51.400;5.494;2023-06-10T22:47:50;101307.88;;;21.11;83.55
47897;BME280;39629;51.400;5.494;2023-06-10T22:52:53;101296.41;;;21.08;82.32
47897;BME280;39629;51.400;5.494;2023-06-10T22:57:55;101299.22;;;21.05;85.40
47897;BME280;39629;51.400;5.494;2023-06-10T23:02:56;101306.84;;;20.92;86.32
47897;BME280;39629;51.400;5.494;2023-06-10T23:07:59;101302.91;;;20.79;89.77
47897;BME280;39629;51.400;5.494;2023-06-10T23:13:01;101305.44;;;20.82;90.15
47897;BME280;39629;51.400;5.494;2023-06-10T23:18:02;101303.03;;;20.75;90.22
47897;BME280;39629;51.400;5.494;2023-06-10T23:23:06;101301.56;;;20.67;91.35
47897;BME280;39629;51.400;5.494;2023-06-10T23:28:09;101300.50;;;20.71;91.65
47897;BME280;39629;51.400;5.494;2023-06-10T23:33:11;101299.25;;;20.57;93.61
47897;BME280;39629;51.400;5.494;2023-06-10T23:38:14;101308.47;;;20.49;95.10
47897;BME280;39629;51.400;5.494;2023-06-10T23:43:16;101300.09;;;20.34;95.62
47897;BME280;39629;51.400;5.494;2023-06-10T23:48:17;101300.75;;;20.14;100.00
47897;BME280;39629;51.400;5.494;2023-06-10T23:53:20;101300.31;;;20.01;96.43
47897;BME280;39629;51.400;5.494;2023-06-10T23:58:22;101291.34;;;20.04;100.00
